首页
METAR-TAF:

METAR-TAF

机场 :

桂林兩江國際機場

桂林, 中华人民共和国

纬度: 25-20N, 经度: 110-18E, 海拔: 166米

当前天气观测

该预报发布于46分钟前的09:00 UTC
风速2节,风向多变
温度 25°C
湿度 47%
气压 1013 hPa
能见度10公里或以上
散云层高于5300英尺
多云层高于7300英尺

METAR: ZGKL 150900Z VRB01MPS 9999 SCT053 BKN073 25/13 Q1013 NOSIG

时间: 17:46 (09:46 UTC)

预报

该预报发布于6小时和36分钟前的03:10 UTC
预报有效从15日的 06点(UTC)到 16日的 06点(UTC)
风速6节,风向
能见度10公里或以上
1500米以下无云,无积雨云

TAF: ZGKL 150310Z 1506/1606 18003MPS CAVOK TX25/1508Z TN09/1522Z

超过4000个机场的气象观测和天气预报(METAR&TAF报告)。

可查询的气象台以黄色和红色小点在地图上表示。

将鼠标移到小点上方,可查看气象台名称。

然后点击查看天气观测和预报。

如需切换地图:点击带黑十字的绿色按钮放大地图;点击带横线的绿色按钮缩小地图;或者点击绿色箭头查看邻近地区的地图。


METAR-TAF: